Aeroporto :
LOGIN :

Iscrizione | Disclaimer

   EN    FR    IT 

 










Sommario :    VFR   VFR Marginale   IFR   IFR Intensivo   IFR Molto Intensivo
Visibilità : 
Base nubi : 
>= 8 km
>= 3000ft
5 / 8 km
1000 / 3000 ft
1500m / 5 km
500 / 1000 ft
800 / 1500m
200 / 500 ft
< 800m
< 200 ft
Simboli :   Temporali  Nebbia  Neve Forte  Precipitazioni Forti  Vento > 20 kt
SIGMETs :   Varie  Temporali  Ghiacco  Turbolenza  Onda orograficha  Ceneri Vulcaniche






- Altitudine del aeroporto : 299 ft
- Codice IATA : EDM


LFRI - La Roche Sur Yon - Les Ajoncs

ULTIMO METAR :
  • 190400Z AUTO 26010KT 9999 FEW017 BKN037 OVC044 09/07 Q1028

METARs OBSOLETI :
  • 190330Z AUTO 27011KT 9999 FEW018 BKN044 OVC190 09/07 Q1028
  • 190300Z AUTO 27010KT 9999 SCT017 BKN022 BKN040 09/08 Q1028
  • 190230Z AUTO 27010KT 9999 FEW018 SCT026 BKN044 09/07 Q1028
  • 190200Z AUTO 26010KT 230V290 9999 BKN017 BKN045 BKN058 09/07 Q1028
  • 190130Z AUTO 26009KT 240V300 9999 BKN019 BKN026 BKN036 09/08 Q1028

TAF TAF LFRI
Valido dal 18 a 18 ore il 19 a 18 ore UTC


181700Z 1818/1918 24010KT 9999 SCT030
PROB30
TEMPO 1818/1821 4000 -SHRA SCT025TCU
TEMPO 1902/1904 28015G25KT 4000 SHRA BKN015TCU
PROB40
TEMPO 1910/1915 -SHRA BKN014



MetMap, La meteo Aeronautica in un colpo d'occhio ! - Copyright ORBIFLY Dicembre 2007 - Disclaimer

ORBIFLY MET'MAP TEAM :

Programmazione e sviluppo : Alexandra Zaïnal
Concezione : Baudouin d'Aumeries
Aiuto per la programmazione : Marc-Olivier Méhu
Supporto tecnico e logistico : Manuel Goepfert
Aiuto per la traduzione : Arnaldo La Scala

Contatto : metmap@orbifly.com




FONTI E CREDITI :

   NOAA